createdAt,value
2018-07-06T07:48:07.534Z,54.65
2018-07-06T07:50:19.789Z,54.13
2018-07-06T07:51:23.741Z,53.93
2018-07-06T07:52:29.570Z,53.28
2018-07-06T10:33:39.657Z,51.47
2018-07-06T10:34:42.673Z,52.24
2018-07-06T10:35:45.131Z,51.90
2018-07-06T10:36:47.587Z,50.96
2018-07-06T10:37:50.861Z,50.69
2018-07-06T10:40:23.316Z,50.93
2018-07-06T10:45:00.601Z,51.09
2018-07-06T10:47:16.642Z,50.20
2018-07-06T10:48:19.070Z,51.00
2018-07-06T10:49:22.342Z,50.24
2018-07-06T10:50:24.772Z,50.03
2018-07-06T10:51:28.893Z,50.23
2018-07-06T10:52:31.332Z,51.20
2018-07-06T10:55:52.867Z,50.73
2018-07-06T10:57:01.547Z,50.92
2018-07-06T10:58:07.824Z,50.42
2018-07-06T11:00:18.427Z,51.42
2018-07-06T11:01:20.900Z,50.54
2018-07-06T11:02:23.382Z,50.55
2018-07-06T11:03:27.685Z,51.17
2018-07-06T11:04:31.026Z,50.50
2018-07-06T11:05:33.487Z,51.04
2018-07-06T11:06:35.940Z,51.33
2018-07-06T20:01:25.711Z,51.30
2018-07-06T20:03:06.992Z,51.44
2018-07-06T20:04:11.213Z,50.91
2018-07-06T20:05:15.475Z,50.17
2018-07-06T20:06:19.757Z,50.27
2018-07-06T20:07:24.519Z,50.54
2018-07-06T20:08:26.948Z,50.22
2018-07-06T20:09:29.389Z,49.46
2018-07-06T20:10:32.261Z,49.99
2018-07-06T20:11:35.351Z,49.64
2018-07-06T20:12:37.775Z,49.07
2018-07-06T20:13:40.565Z,49.18
2018-07-06T20:14:43.801Z,49.99
2018-07-06T20:15:46.239Z,49.86
2018-07-06T20:16:49.467Z,49.16
2018-07-06T20:17:52.685Z,49.63
2018-07-06T20:18:55.160Z,49.27
2018-07-06T20:19:57.925Z,49.74
2018-07-06T20:22:07.907Z,49.33
2018-07-06T20:23:12.072Z,49.09
2018-07-06T20:24:14.537Z,49.47
2018-07-06T20:25:18.615Z,48.80
2018-07-06T22:31:56.086Z,50.30
2018-07-06T22:32:58.595Z,50.37
2018-07-06T22:34:01.943Z,49.85
2018-07-06T22:35:04.419Z,50.03
2018-07-06T22:36:08.234Z,50.16
2018-07-06T22:37:11.294Z,49.61
2018-07-06T22:38:14.345Z,49.54
2018-07-06T22:39:16.815Z,48.63
2018-07-06T22:40:19.319Z,49.36
2018-07-06T22:41:21.773Z,48.42
2018-07-06T22:42:24.229Z,48.34
2018-07-06T22:43:26.951Z,48.32
2018-07-06T22:44:30.133Z,48.08
2018-07-06T22:45:34.235Z,46.50
2018-07-06T22:46:38.521Z,45.55
2018-07-06T22:47:40.961Z,46.73
2018-07-06T22:48:43.379Z,46.20
2018-07-06T22:49:46.600Z,46.64
2018-07-06T22:50:49.579Z,46.31
2018-07-06T22:51:55.720Z,46.22
2018-07-06T22:52:58.304Z,46.10
2018-07-06T22:54:01.411Z,47.05
2018-07-06T22:55:05.280Z,46.58
2018-07-06T22:56:09.782Z,46.26
2018-07-06T22:57:12.379Z,46.28
2018-07-06T22:58:15.567Z,46.25
2018-07-06T22:59:18.857Z,46.57
2018-07-06T23:00:21.294Z,46.27
2018-07-06T23:01:24.381Z,46.67
2018-07-06T23:02:27.114Z,45.69
2018-07-06T23:03:30.500Z,45.91
2018-07-06T23:04:32.935Z,46.17
2018-07-06T23:05:36.577Z,45.27
2018-07-06T23:06:39.760Z,46.05
2018-07-06T23:07:43.734Z,45.38
2018-07-06T23:08:46.476Z,45.91
2018-07-06T23:09:49.639Z,45.96
2018-07-06T23:10:55.876Z,45.88
2018-07-06T23:11:58.339Z,45.78
2018-07-06T23:13:00.765Z,45.83
2018-07-06T23:14:03.334Z,45.17
2018-07-06T23:15:07.028Z,45.61
2018-07-06T23:16:09.446Z,45.74
2018-07-06T23:17:11.871Z,45.85
2018-07-06T23:18:14.288Z,45.99
2018-07-06T23:19:17.223Z,45.51
2018-07-06T23:20:19.641Z,45.67
2018-07-06T23:21:22.421Z,45.89
2018-07-06T23:22:24.868Z,45.45
2018-07-06T23:23:27.305Z,45.56
2018-07-06T23:24:29.754Z,45.38
2018-07-06T23:25:32.208Z,45.65
